Artesia ASC

Jan. 22, 2020, 2:55 p.m.

  • imperial
Air Temperature RH Dewpoint Wind Chill Heat Index Wind Speed Wind Direction Precipitation Solar Radiation Soil Temperature
Date Time Max Mean Mean Total Total
US/Mountain F % F F F MPH MPH MPH deg. deg. in. MJ/m^2 F
2020-01-21 14:55 38.53 85.7 34.62 35.08 38.53 4.56 6.0 4.85 10.3 164.5 0.0 0.061 45.48
2020-01-21 15:00 38.66 87.8 35.36 35.72 38.66 4.03 5.28 4.41 12.7 165.5 0.0 0.057 45.46
2020-01-21 15:05 38.66 87.8 35.36 35.23 38.66 4.56 6.0 4.97 9.9 176.0 0.0 0.049 45.46
2020-01-21 15:10 38.71 87.5 35.32 34.45 38.71 5.64 7.25 6.06 10.6 182.0 0.0 0.041 45.45
2020-01-21 15:15 38.59 85.3 34.56 33.16 38.59 7.43 8.48 6.78 7.5 171.9 0.01 0.036 45.45
2020-01-21 15:20 38.41 87.0 34.88 33.37 38.41 6.71 7.43 6.46 7.6 165.2 0.0 0.052 45.45
2020-01-21 15:25 38.28 87.0 34.75 33.22 38.28 6.71 7.61 6.44 7.5 175.3 0.0 0.057 45.45
2020-01-21 15:30 38.48 89.1 35.55 35.02 38.48 4.56 6.71 5.64 8.4 177.0 0.0 0.049 45.45
2020-01-21 15:35 38.48 87.7 35.15 32.82 38.48 7.78 7.78 6.29 13.1 175.3 0.0 0.047 45.41
2020-01-21 15:40 38.41 88.0 35.17 33.48 38.41 6.53 8.86 7.07 6.0 171.4 0.0 0.044 45.41
2020-01-21 15:45 38.41 89.1 35.48 34.22 38.41 5.46 8.68 7.14 8.6 159.9 0.0 0.042 45.41
2020-01-21 15:50 38.35 87.9 35.08 32.11 38.35 8.86 9.22 7.45 7.0 140.5 0.0 0.04 45.39
2020-01-21 15:55 38.16 88.5 35.06 32.84 38.16 7.07 9.73 7.72 7.1 138.7 0.0 0.041 45.37
2020-01-21 16:00 38.48 91.0 36.08 32.55 38.48 8.3 9.04 7.74 6.7 140.2 0.0 0.039 45.36
2020-01-21 16:05 38.28 90.8 35.83 30.05 38.28 13.67 13.67 9.98 5.6 127.5 0.0 0.036 45.34
2020-01-21 16:10 38.35 92.0 36.23 30.59 38.35 12.42 15.1 13.15 5.6 120.5 0.0 0.037 45.36
2020-01-21 16:15 38.1 91.7 35.9 32.78 38.1 7.07 13.13 9.98 5.7 128.6 0.0 0.031 45.34
2020-01-21 16:20 38.23 91.7 36.03 34.43 38.23 4.92 9.04 5.88 11.0 132.2 0.0 0.034 45.3
2020-01-21 16:25 38.28 90.8 35.83 35.83 38.28 3.49 6.0 4.41 12.9 137.7 0.0 0.012 45.3
2020-01-21 16:30 38.66 90.2 36.04 38.66 38.66 2.59 4.21 2.73 16.5 184.2 0.0 0.007 45.28
2020-01-21 16:35 38.79 89.5 35.96 38.79 38.79 2.77 3.49 2.55 11.6 173.6 0.0 0.006 45.27
2020-01-21 16:40 38.53 89.4 35.69 38.53 38.53 1.7 3.13 2.37 16.5 158.4 0.0 0.006 45.27
2020-01-21 16:45 38.53 89.4 35.69 38.53 38.53 2.06 2.06 1.32 9.3 193.2 0.0 0.005 45.25
2020-01-21 16:50 38.71 89.5 35.89 38.71 38.71 2.59 2.77 2.08 14.9 216.5 0.0 0.004 45.25
2020-01-21 16:55 38.71 90.5 36.17 38.71 38.71 2.42 3.13 2.64 7.2 222.4 0.0 0.003 45.23
2020-01-21 17:00 38.66 90.5 36.12 38.66 38.66 2.24 2.77 2.15 10.2 213.6 0.0 0.002 45.19
2020-01-21 17:05 38.79 90.3 36.19 38.79 38.79 2.24 2.77 2.17 20.0 255.6 0.0 0.002 45.21
2020-01-21 17:10 39.02 89.6 36.22 39.02 39.02 2.95 3.67 2.77 15.3 246.4 0.0 0.001 45.19
2020-01-21 17:15 39.2 89.2 36.29 36.69 39.2 3.67 3.85 3.06 10.8 194.7 0.0 0.001 45.18
2020-01-21 17:20 39.15 89.1 36.21 39.15 39.15 2.77 4.03 3.31 8.7 189.9 0.0 0.0 45.18
2020-01-21 17:25 39.33 88.0 36.07 39.33 39.33 2.24 3.67 2.82 10.9 185.0 0.0 0.0 45.16
2020-01-21 17:30 39.4 87.3 35.94 39.4 39.4 2.95 3.13 2.68 6.4 187.7 0.0 0.0 45.14
2020-01-21 17:35 39.4 88.0 36.14 39.4 39.4 2.59 3.31 2.75 4.8 189.3 0.0 0.0 45.14
2020-01-21 17:40 39.2 88.3 36.03 36.18 39.2 4.21 4.21 3.24 8.0 184.2 0.0 0.0 45.12
2020-01-21 17:45 39.2 89.0 36.23 34.9 39.2 5.82 6.53 5.3 4.9 174.4 0.0 0.0 45.1
2020-01-21 17:50 39.2 89.4 36.34 36.18 39.2 4.21 5.82 4.85 5.6 179.9 0.0 0.0 45.1
2020-01-21 17:55 39.27 89.9 36.56 35.95 39.27 4.56 5.28 4.56 7.5 164.3 0.0 0.0 45.07
2020-01-21 18:00 39.2 90.4 36.63 39.2 39.2 1.88 4.56 2.93 12.9 168.2 0.0 0.0 45.05
2020-01-21 18:05 39.15 90.1 36.49 39.15 39.15 1.7 1.88 1.41 25.9 150.8 0.0 0.0 45.05
2020-01-21 18:10 39.13 89.8 36.39 36.8 39.13 3.49 3.49 2.35 8.2 148.0 0.0 0.0 45.05
2020-01-21 18:15 39.07 89.7 36.31 36.74 39.07 3.49 4.56 3.83 5.7 148.3 0.0 0.0 45.01
2020-01-21 18:20 39.13 89.6 36.33 35.78 39.13 4.56 5.28 4.52 5.8 141.2 0.0 0.0 45.03
2020-01-21 18:25 39.07 91.2 36.73 34.39 39.07 6.35 6.89 5.44 6.0 130.1 0.0 0.0 45.01
2020-01-21 18:30 39.02 91.6 36.78 33.78 39.02 7.25 8.48 6.6 6.1 136.3 0.0 0.0 44.98
2020-01-21 18:35 39.02 92.0 36.89 34.21 39.02 6.53 8.12 6.46 6.2 141.0 0.0 0.0 44.98
2020-01-21 18:40 38.89 92.4 36.88 33.63 38.89 7.25 9.57 7.54 7.0 141.6 0.0 0.0 44.98
2020-01-21 18:45 39.07 92.5 37.08 32.59 39.07 9.73 10.09 8.75 6.3 144.8 0.0 0.0 44.96
2020-01-21 18:50 38.82 93.0 36.97 31.45 38.82 11.7 11.7 9.66 6.8 142.6 0.0 0.0 44.96
2020-01-21 18:55 39.02 93.4 37.28 32.44 39.02 9.91 12.06 10.25 6.9 142.7 0.0 0.0 44.96
2020-01-21 19:00 39.07 91.5 36.81 32.2 39.07 10.63 13.49 10.85 6.5 147.4 0.0 0.0 44.92
2020-01-21 19:05 39.07 91.2 36.73 33.75 39.07 7.43 10.27 7.72 6.8 149.9 0.0 0.0 44.92
2020-01-21 19:10 39.13 90.4 36.56 33.61 39.13 7.78 8.68 6.93 6.1 156.8 0.0 0.0 44.91
2020-01-21 19:15 38.89 89.5 36.07 33.53 38.89 7.43 8.68 7.4 8.7 152.4 0.0 0.0 44.89
2020-01-21 19:20 39.07 89.5 36.25 34.51 39.07 6.17 8.3 6.24 6.4 154.0 0.0 0.0 44.89
2020-01-21 19:25 38.82 89.9 36.11 34.71 38.82 5.46 7.43 6.33 6.7 151.3 0.0 0.0 44.87
2020-01-21 19:30 38.64 90.8 36.19 32.46 38.64 8.86 9.57 7.56 6.0 158.8 0.0 0.0 44.85
2020-01-21 19:35 38.71 90.6 36.2 34.45 38.71 5.64 9.73 7.63 6.7 160.6 0.0 0.0 44.83
2020-01-21 19:40 38.46 90.5 35.93 34.56 38.46 5.1 7.61 6.15 8.1 159.9 0.0 0.0 44.82
2020-01-21 19:45 38.64 90.9 36.21 35.53 38.64 4.21 6.17 4.38 13.6 153.8 0.0 0.0 44.8
2020-01-21 19:50 38.52 90.4 35.95 38.52 38.52 1.52 4.92 2.91 17.7 163.0 0.0 0.0 44.78
2020-01-21 19:55 38.41 90.2 35.79 38.41 38.41 1.34 1.88 1.32 23.2 159.9 0.0 0.0 44.76
2020-01-21 20:00 38.34 90.1 35.69 38.34 38.34 2.06 2.24 1.05 63.5 43.2 0.0 0.0 44.74
2020-01-21 20:05 38.48 90.7 36.0 38.48 38.48 2.59 4.03 3.04 11.2 12.5 0.0 0.0 44.74
2020-01-21 20:10 38.28 90.4 35.72 38.28 38.28 2.42 2.95 2.17 11.8 355.1 0.0 0.0 44.71
2020-01-21 20:15 38.23 90.7 35.75 38.23 38.23 2.24 2.59 2.17 7.2 338.2 0.0 0.0 44.67
2020-01-21 20:20 38.05 91.2 35.71 38.05 38.05 2.77 2.77 2.3 10.1 4.4 0.0 0.0 44.67
2020-01-21 20:25 38.05 91.2 35.71 38.05 38.05 2.42 3.13 2.53 10.5 17.2 0.0 0.0 44.64
2020-01-21 20:30 38.1 91.6 35.87 38.1 38.1 2.59 2.77 1.88 13.1 24.0 0.0 0.0 44.64
2020-01-21 20:35 37.74 91.6 35.52 37.74 37.74 2.95 4.03 3.2 13.3 358.1 0.0 0.0 44.6
2020-01-21 20:40 37.54 92.2 35.49 37.54 37.54 2.42 4.38 2.93 11.5 357.7 0.0 0.0 44.6
2020-01-21 20:45 37.54 92.1 35.46 37.54 37.54 1.7 2.24 1.5 39.9 350.4 0.0 0.0 44.58
2020-01-21 20:50 37.31 92.1 35.23 37.31 37.31 2.77 2.77 2.06 21.2 314.3 0.0 0.0 44.53
2020-01-21 20:55 37.06 93.0 35.22 37.06 37.06 1.88 3.31 2.66 12.0 3.5 0.0 0.0 44.55
2020-01-21 21:00 37.13 93.2 35.35 37.13 37.13 2.24 3.13 2.33 15.4 11.6 0.0 0.0 44.51
2020-01-21 21:05 37.13 93.2 35.35 37.13 37.13 0.81 2.59 1.7 19.0 0.2 0.0 0.0 44.46
2020-01-21 21:10 37.18 93.4 35.46 37.18 37.18 2.59 2.59 1.77 29.5 42.6 0.0 0.0 44.46
2020-01-21 21:15 36.32 94.4 34.87 36.32 36.32 2.59 5.46 4.3 22.9 346.3 0.0 0.0 44.44
2020-01-21 21:20 36.46 94.9 35.14 36.46 36.46 2.24 3.13 2.62 20.1 10.8 0.0 0.0 44.4
2020-01-21 21:25 36.57 94.5 35.14 36.57 36.57 2.95 3.13 2.68 8.2 3.2 0.0 0.0 44.4
2020-01-21 21:30 36.39 94.4 34.94 36.39 36.39 2.42 3.31 2.8 5.3 351.0 0.0 0.0 44.37
2020-01-21 21:35 36.21 93.7 34.57 36.21 36.21 1.16 2.42 1.63 27.5 3.8 0.0 0.0 44.35
2020-01-21 21:40 35.85 94.5 34.43 32.29 35.85 4.21 4.38 2.44 26.7 329.0 0.0 0.0 44.33
2020-01-21 21:45 35.11 94.8 33.77 31.44 35.11 4.21 4.74 4.09 5.2 340.6 0.0 0.0 44.29
2020-01-21 21:50 34.81 95.8 33.73 32.07 34.81 3.31 4.38 3.76 9.6 328.3 0.0 0.0 44.28
2020-01-21 21:55 34.74 96.2 33.76 31.0 34.74 4.21 4.74 3.62 6.3 334.7 0.0 0.0 44.26
2020-01-21 22:00 34.74 96.8 33.92 31.18 34.74 4.03 4.56 4.14 7.2 338.0 0.0 0.0 44.22
2020-01-21 22:05 34.38 97.2 33.66 34.38 34.38 2.95 4.74 3.6 11.9 335.9 0.0 0.0 44.19
2020-01-21 22:10 34.86 97.0 34.1 32.13 34.86 3.31 3.85 3.29 9.5 342.8 0.0 0.0 44.19
2020-01-21 22:15 34.63 97.3 33.94 34.63 34.63 2.59 4.03 3.2 8.8 341.3 0.0 0.0 44.15
2020-01-21 22:20 34.88 97.1 34.14 31.94 34.88 3.49 3.67 3.18 6.6 338.0 0.0 0.0 44.11
2020-01-21 22:25 34.57 97.8 34.02 32.03 34.57 3.13 3.31 2.98 8.4 341.1 0.0 0.0 44.1
2020-01-21 22:30 34.57 98.0 34.07 30.63 34.57 4.38 4.38 3.22 11.3 339.3 0.0 0.0 44.06
2020-01-21 22:35 34.2 97.1 33.46 34.2 34.2 2.77 4.56 3.74 8.8 335.6 0.0 0.0 44.02
2020-01-21 22:40 33.94 97.2 33.23 33.94 33.94 2.59 2.95 2.57 10.4 328.1 0.0 0.0 44.01
2020-01-21 22:45 34.02 97.5 33.38 31.39 34.02 3.13 3.85 3.02 10.2 339.7 0.0 0.0 43.97
2020-01-21 22:50 34.07 97.9 33.54 31.45 34.07 3.13 4.21 3.49 7.6 343.2 0.0 0.0 43.95
2020-01-21 22:55 33.58 97.6 32.98 33.58 33.58 2.06 3.31 2.01 29.8 301.8 0.0 0.0 43.93
2020-01-21 23:00 33.58 97.6 32.98 33.58 33.58 1.52 3.31 2.64 15.5 266.6 0.0 0.0 43.92
2020-01-21 23:05 32.97 97.8 32.42 32.97 32.97 1.88 2.59 2.24 13.0 289.5 0.0 0.0 43.88
2020-01-21 23:10 33.15 98.4 32.75 33.15 33.15 2.95 2.95 2.28 13.6 318.1 0.0 0.0 43.84
2020-01-21 23:15 32.85 98.1 32.37 29.4 32.85 3.67 3.85 3.27 6.4 339.4 0.0 0.0 43.81
2020-01-21 23:20 32.79 98.3 32.37 32.79 32.79 2.06 3.67 2.91 8.8 336.8 0.0 0.0 43.77
2020-01-21 23:25 32.59 98.6 32.24 32.59 32.59 1.88 2.59 2.06 13.3 297.7 0.0 0.0 43.77
2020-01-21 23:30 32.72 98.8 32.42 32.72 32.72 2.59 2.77 2.15 19.6 317.9 0.0 0.0 43.72
2020-01-21 23:35 32.72 99.0 32.47 32.72 32.72 2.77 3.85 3.33 7.0 340.1 0.0 0.0 43.7
2020-01-21 23:40 32.23 98.8 31.93 29.14 32.23 3.31 3.31 2.39 45.3 260.8 0.0 0.0 43.68
2020-01-21 23:45 32.23 98.9 31.96 32.23 32.23 2.06 3.85 3.09 9.6 313.0 0.0 0.0 43.63
2020-01-21 23:50 32.05 98.7 31.73 32.05 32.05 1.34 2.24 1.7 6.9 272.2 0.0 0.0 43.61
2020-01-21 23:55 31.8 99.0 31.55 31.8 31.8 2.06 2.06 1.45 8.4 278.9 0.0 0.0 43.57
2020-01-22 00:00 31.55 98.8 31.25 31.55 31.55 2.24 2.59 2.33 13.7 277.2 0.0 0.0 43.54
2020-01-22 00:05 31.5 99.2 31.3 31.5 31.5 2.42 2.77 2.59 3.1 301.8 0.0 0.0 43.5
2020-01-22 00:10 31.44 99.0 31.19 31.44 31.44 2.06 2.59 1.81 20.9 283.0 0.0 0.0 43.48
2020-01-22 00:15 31.57 99.7 31.49 28.61 31.57 3.13 3.13 2.19 29.0 319.3 0.0 0.0 43.43
2020-01-22 00:20 31.87 99.1 31.65 27.87 31.87 4.03 4.03 3.51 4.0 339.3 0.0 0.0 43.43
2020-01-22 00:25 31.62 99.8 31.57 28.21 31.62 3.49 4.92 4.03 6.6 344.8 0.0 0.0 43.39
2020-01-22 00:30 31.62 99.2 31.42 31.62 31.62 2.59 3.67 3.13 10.7 317.8 0.0 0.0 43.36
2020-01-22 00:35 31.44 99.3 31.27 31.44 31.44 2.59 2.95 2.64 4.3 300.2 0.0 0.0 43.32
2020-01-22 00:40 31.39 99.7 31.31 31.39 31.39 2.95 2.95 2.59 5.4 319.9 0.0 0.0 43.29
2020-01-22 00:45 31.21 99.5 31.08 31.21 31.21 2.59 2.95 2.71 3.8 322.9 0.0 0.0 43.27
2020-01-22 00:50 31.21 99.7 31.13 31.21 31.21 2.42 3.13 2.68 6.0 330.2 0.0 0.0 43.23
2020-01-22 00:55 31.08 99.7 31.01 31.08 31.08 2.24 2.95 2.57 6.9 333.1 0.0 0.0 43.23
2020-01-22 01:00 31.21 99.6 31.11 31.21 31.21 2.06 2.59 2.24 12.5 322.6 0.0 0.0 43.18
2020-01-22 01:05 30.9 99.6 30.8 30.9 30.9 1.88 2.42 1.99 14.8 311.1 0.0 0.0 43.14
2020-01-22 01:10 31.32 99.8 31.27 31.32 31.32 1.52 2.42 1.9 12.6 321.2 0.0 0.0 43.12
2020-01-22 01:15 30.96 99.2 30.76 30.96 30.96 1.34 2.06 1.61 12.6 260.6 0.0 0.0 43.09
2020-01-22 01:20 30.7 99.5 30.58 30.7 30.7 1.88 1.88 1.54 9.2 278.0 0.0 0.0 43.05
2020-01-22 01:25 30.27 99.5 30.15 30.27 30.27 1.88 1.88 1.81 24.9 304.3 0.0 0.0 43.02
2020-01-22 01:30 31.01 99.9 30.99 31.01 31.01 1.34 2.06 1.83 4.5 333.2 0.0 0.0 43.0
2020-01-22 01:35 31.21 99.7 31.13 31.21 31.21 2.42 2.59 2.01 3.8 320.9 0.0 0.0 42.96
2020-01-22 01:40 31.08 99.8 31.03 31.08 31.08 2.95 3.13 2.73 6.4 334.4 0.0 0.0 42.94
2020-01-22 01:45 30.83 99.7 30.76 27.08 30.83 3.67 3.67 3.49 4.9 307.4 0.0 0.0 42.91
2020-01-22 01:50 30.65 99.9 30.63 30.65 30.65 2.77 3.49 2.8 7.8 316.9 0.0 0.0 42.87
2020-01-22 01:55 31.14 100.0 31.14 31.14 31.14 2.95 3.31 2.95 4.5 315.0 0.0 0.0 42.84
2020-01-22 02:00 30.78 99.5 30.65 30.78 30.78 0.81 2.77 1.52 34.2 276.3 0.0 0.0 42.82
2020-01-22 02:05 30.47 99.8 30.42 30.47 30.47 2.42 2.42 1.63 27.3 281.8 0.0 0.0 42.8
2020-01-22 02:10 30.4 99.9 30.37 30.4 30.4 2.95 3.13 2.39 11.1 268.6 0.0 0.0 42.76
2020-01-22 02:15 30.22 100.0 30.22 30.22 30.22 2.06 2.95 2.28 22.6 323.7 0.0 0.0 42.73
2020-01-22 02:20 31.01 100.0 31.01 31.01 31.01 1.16 2.06 1.1 14.6 335.4 0.0 0.0 42.69
2020-01-22 02:25 30.83 99.9 30.81 30.83 30.83 0.81 1.16 0.87 9.0 328.8 0.0 0.0 42.66
2020-01-22 02:30 30.9 99.8 30.85 30.9 30.9 2.59 2.59 1.79 13.2 325.8 0.0 0.0 42.67
2020-01-22 02:35 30.96 100.0 30.96 30.96 30.96 2.59 3.67 2.95 8.5 349.8 0.0 0.0 42.64
2020-01-22 02:40 29.98 98.8 29.69 26.34 29.98 3.49 4.74 3.94 10.6 327.3 0.0 0.0 42.6
2020-01-22 02:45 30.09 100.0 30.09 30.09 30.09 2.24 4.21 2.82 10.0 324.8 0.0 0.0 42.58
2020-01-22 02:50 30.4 99.9 30.37 30.4 30.4 2.24 2.42 2.13 14.9 319.5 0.0 0.0 42.57
2020-01-22 02:55 30.29 99.7 30.22 30.29 30.29 2.24 2.24 1.88 6.0 296.7 0.0 0.0 42.53
2020-01-22 03:00 30.04 99.5 29.91 30.04 30.04 1.7 2.59 2.06 11.5 272.2 0.0 0.0 42.49
2020-01-22 03:05 29.66 99.6 29.56 29.66 29.66 2.06 2.42 2.04 7.2 267.1 0.0 0.0 42.46
2020-01-22 03:10 29.25 99.7 29.17 29.25 29.25 1.52 2.42 1.99 11.3 294.2 0.0 0.0 42.46
2020-01-22 03:15 29.12 99.7 29.05 29.12 29.12 2.59 2.59 2.04 20.4 265.0 0.0 0.0 42.42
2020-01-22 03:20 28.62 99.6 28.52 28.62 28.62 2.06 2.42 1.68 35.5 221.0 0.0 0.0 42.39
2020-01-22 03:25 28.62 99.3 28.44 28.62 28.62 2.24 3.13 2.55 17.1 228.1 0.0 0.0 42.35
2020-01-22 03:30 28.56 99.9 28.54 28.56 28.56 1.16 2.24 1.19 31.4 269.3 0.0 0.0 42.33
2020-01-22 03:35 28.94 99.9 28.92 28.94 28.94 2.42 2.42 1.5 14.2 312.0 0.0 0.0 42.31
2020-01-22 03:40 28.99 99.9 28.97 28.99 28.99 2.95 3.31 3.0 9.0 334.5 0.0 0.0 42.28
2020-01-22 03:45 29.68 99.9 29.65 29.68 29.68 0.0 2.77 1.32 4.7 349.7 0.0 0.0 42.26
2020-01-22 03:50 29.62 99.6 29.53 29.62 29.62 0.0 0.0 0.0 0.0 0.0 0.0 0.0 42.22
2020-01-22 03:55 29.19 99.4 29.04 25.92 29.19 3.13 3.67 2.42 12.1 58.8 0.0 0.0 42.22
2020-01-22 04:00 28.45 99.1 28.23 28.45 28.45 0.0 4.03 2.77 15.1 43.9 0.0 0.0 42.19
2020-01-22 04:05 28.45 99.7 28.38 28.45 28.45 0.0 0.0 0.0 0.0 0.0 0.0 0.0 42.15
2020-01-22 04:10 28.33 99.5 28.21 28.33 28.33 0.0 0.0 0.0 0.0 0.0 0.0 0.0 42.13
2020-01-22 04:15 28.08 99.8 28.03 28.08 28.08 0.0 0.0 0.0 0.0 0.0 0.0 0.0 42.12
2020-01-22 04:20 27.95 99.6 27.85 27.95 27.95 0.0 0.0 0.0 0.0 0.0 0.0 0.0 42.08
2020-01-22 04:25 27.95 100.0 27.95 27.95 27.95 0.0 0.0 0.0 0.0 0.0 0.0 0.0 42.04
2020-01-22 04:30 28.02 99.9 28.0 28.02 28.02 0.0 0.0 0.0 0.0 0.0 0.0 0.0 42.04
2020-01-22 04:35 28.02 99.8 27.97 28.02 28.02 0.0 0.0 0.0 0.0 0.0 0.0 0.0 42.01
2020-01-22 04:40 28.02 99.9 28.0 28.02 28.02 0.0 0.0 0.0 0.0 0.0 0.0 0.0 41.97
2020-01-22 04:45 28.08 99.8 28.03 28.08 28.08 0.0 0.0 0.0 0.0 0.0 0.0 0.0 41.97
2020-01-22 04:50 28.02 99.8 27.97 28.02 28.02 0.0 0.0 0.0 0.0 0.0 0.0 0.0 41.94
2020-01-22 04:55 27.95 99.9 27.93 27.95 27.95 0.0 0.0 0.0 0.0 0.0 0.0 0.0 41.9
2020-01-22 05:00 28.76 99.8 28.71 28.76 28.76 0.0 0.0 0.0 0.0 0.0 0.0 0.0 41.9
2020-01-22 05:05 28.2 99.4 28.06 28.2 28.2 0.0 0.0 0.0 0.0 0.0 0.0 0.0 41.86
2020-01-22 05:10 28.51 100.0 28.51 28.51 28.51 0.0 0.0 0.0 0.0 0.0 0.0 0.0 41.83
2020-01-22 05:15 29.3 99.9 29.28 29.3 29.3 0.0 0.0 0.0 0.0 0.0 0.0 0.0 41.83
2020-01-22 05:20 29.93 99.9 29.91 29.93 29.93 0.0 0.0 0.0 0.0 0.0 0.0 0.0 41.79
2020-01-22 05:25 29.37 99.8 29.32 29.37 29.37 0.0 0.0 0.0 0.0 0.0 0.0 0.0 41.76
2020-01-22 05:30 28.99 99.7 28.92 28.99 28.99 0.0 0.0 0.0 0.0 0.0 0.0 0.0 41.72
2020-01-22 05:35 29.25 99.9 29.22 29.25 29.25 0.0 0.0 0.0 0.0 0.0 0.0 0.0 41.74
2020-01-22 05:40 29.12 99.7 29.05 29.12 29.12 0.0 0.0 0.0 0.0 0.0 0.0 0.0 41.7
2020-01-22 05:45 29.3 99.8 29.25 29.3 29.3 0.0 0.0 0.0 0.0 0.0 0.0 0.0 41.68
2020-01-22 05:50 28.89 99.8 28.84 28.89 28.89 0.0 0.0 0.0 0.0 0.0 0.0 0.0 41.67
2020-01-22 05:55 28.81 99.7 28.74 28.81 28.81 0.0 0.0 0.0 0.0 0.0 0.0 0.0 41.63
2020-01-22 06:00 28.45 99.8 28.41 28.45 28.45 0.0 0.0 0.0 0.0 0.0 0.0 0.0 41.61
2020-01-22 06:05 28.56 99.9 28.54 28.56 28.56 0.0 0.0 0.0 0.0 0.0 0.0 0.0 41.59
2020-01-22 06:10 28.51 99.6 28.41 28.51 28.51 0.0 0.0 0.0 0.0 0.0 0.0 0.0 41.56
2020-01-22 06:15 28.15 99.6 28.05 28.15 28.15 0.0 0.0 0.0 0.0 0.0 0.0 0.0 41.56
2020-01-22 06:20 28.2 99.6 28.1 28.2 28.2 0.0 0.0 0.0 0.0 0.0 0.0 0.0 41.52
2020-01-22 06:25 28.56 100.0 28.56 28.56 28.56 0.0 0.0 0.0 0.0 0.0 0.0 0.0 41.5
2020-01-22 06:30 28.81 99.9 28.79 28.81 28.81 0.0 0.0 0.0 0.0 0.0 0.0 0.0 41.49
2020-01-22 06:35 28.89 99.7 28.81 28.89 28.89 0.0 0.0 0.0 0.0 0.0 0.0 0.0 41.47
2020-01-22 06:40 28.56 99.8 28.51 28.56 28.56 0.0 0.0 0.0 0.0 0.0 0.0 0.0 41.45
2020-01-22 06:45 28.76 99.7 28.69 28.76 28.76 0.0 0.0 0.0 0.0 0.0 0.0 0.0 41.41
2020-01-22 06:50 28.76 99.7 28.69 28.76 28.76 0.0 0.0 0.0 0.0 0.0 0.0 0.001 41.41
2020-01-22 06:55 28.69 99.6 28.59 28.69 28.69 0.0 0.0 0.0 0.0 0.0 0.0 0.002 41.38
2020-01-22 07:00 29.19 99.9 29.17 29.19 29.19 0.0 0.0 0.0 0.0 0.0 0.0 0.01 41.34
2020-01-22 07:05 29.37 99.7 29.3 29.37 29.37 0.0 0.0 0.0 0.0 0.0 0.0 0.016 41.34
2020-01-22 07:10 29.19 99.5 29.07 29.19 29.19 0.0 0.0 0.0 0.0 0.0 0.0 0.026 41.32
2020-01-22 07:15 28.81 99.5 28.69 28.81 28.81 0.0 0.0 0.0 0.0 0.0 0.0 0.036 41.31
2020-01-22 07:20 28.94 99.7 28.87 28.94 28.94 0.0 0.0 0.0 0.0 0.0 0.0 0.049 41.27
2020-01-22 07:25 29.3 99.7 29.23 29.3 29.3 0.0 0.0 0.0 0.0 0.0 0.0 0.032 41.27
2020-01-22 07:30 30.29 99.9 30.27 30.29 30.29 0.0 0.0 0.0 0.0 0.0 0.0 0.08 41.25
2020-01-22 07:35 30.04 99.0 29.79 30.04 30.04 0.0 0.0 0.0 0.0 0.0 0.0 0.094 41.23
2020-01-22 07:40 30.34 98.8 30.05 30.34 30.34 0.0 0.0 0.0 0.0 0.0 0.0 0.05 41.22
2020-01-22 07:45 30.6 98.7 30.27 30.6 30.6 0.0 0.0 0.0 0.0 0.0 0.0 0.069 41.22
2020-01-22 07:50 30.34 98.7 30.02 30.34 30.34 0.0 0.0 0.0 0.0 0.0 0.0 0.062 41.2
2020-01-22 07:55 30.65 98.5 30.28 30.65 30.65 0.0 0.0 0.0 0.0 0.0 0.0 0.149 41.18
2020-01-22 08:00 31.08 98.5 30.71 31.08 31.08 0.0 0.0 0.0 0.0 0.0 0.0 0.173 41.16
2020-01-22 08:05 31.26 98.3 30.84 31.26 31.26 0.0 0.81 0.02 0.0 282.6 0.0 0.181 41.14
2020-01-22 08:10 31.64 97.8 31.09 28.46 31.64 3.31 4.56 3.24 7.5 343.0 0.0 0.177 41.14
2020-01-22 08:15 31.95 97.8 31.39 31.95 31.95 2.59 4.21 3.13 13.4 331.3 0.0 0.202 41.13
2020-01-22 08:20 32.92 97.9 32.39 32.92 32.92 2.06 2.95 2.3 22.3 320.8 0.0 0.219 41.13
2020-01-22 08:25 33.89 97.2 33.18 33.89 33.89 1.52 3.31 2.33 25.5 0.8 0.0 0.229 41.13
2020-01-22 08:30 34.09 95.8 33.02 34.09 34.09 2.95 2.95 2.3 14.8 291.1 0.0 0.234 41.13
2020-01-22 08:35 35.01 95.5 33.85 31.31 35.01 4.21 4.56 2.98 21.2 310.9 0.0 0.246 41.11
2020-01-22 08:40 35.06 95.1 33.8 31.94 35.06 3.67 5.82 4.43 17.9 354.6 0.0 0.259 41.11
2020-01-22 08:45 35.67 95.4 34.49 35.67 35.67 1.16 3.31 2.55 17.0 326.7 0.0 0.274 41.11
2020-01-22 08:50 37.27 93.8 35.65 37.27 37.27 2.06 2.06 1.72 29.4 16.0 0.0 0.287 41.11
2020-01-22 08:55 37.33 91.7 35.14 37.33 37.33 1.52 3.31 2.51 15.4 51.7 0.0 0.304 41.11
2020-01-22 09:00 38.3 91.5 36.04 38.3 38.3 1.16 2.42 1.34 51.8 258.9 0.0 0.322 41.11
2020-01-22 09:05 39.22 88.4 36.08 37.3 39.22 3.13 3.85 2.06 65.7 152.0 0.0 0.34 41.09
2020-01-22 09:10 38.91 89.1 35.98 38.91 38.91 2.24 4.56 3.2 23.8 55.5 0.0 0.349 41.09
2020-01-22 09:15 39.52 88.9 36.52 37.65 39.52 3.13 3.13 1.92 22.9 344.0 0.0 0.388 41.11
2020-01-22 09:20 40.37 87.6 36.98 37.69 40.37 4.03 4.03 2.8 25.5 31.4 0.0 0.379 41.13
2020-01-22 09:25 40.42 88.5 37.3 36.87 40.42 5.1 6.17 4.18 16.2 51.1 0.0 0.391 41.14
2020-01-22 09:30 40.6 90.0 37.9 40.6 40.6 2.59 4.74 3.58 33.4 350.2 0.0 0.387 41.18
2020-01-22 09:35 41.95 91.0 39.52 41.95 41.95 2.24 4.21 2.77 16.9 323.6 0.0 0.397 41.18
2020-01-22 09:40 43.43 88.7 40.32 43.43 43.43 1.7 4.38 2.77 18.7 339.0 0.0 0.434 41.22
2020-01-22 09:45 44.83 85.7 40.81 44.83 44.83 0.98 2.77 1.81 27.4 333.4 0.0 0.458 41.27
2020-01-22 09:50 46.92 84.8 42.59 46.92 46.92 2.77 4.56 1.88 64.5 131.7 0.0 0.47 41.32
2020-01-22 09:55 48.56 82.3 43.41 46.91 48.56 4.38 4.38 2.24 78.2 44.1 0.0 0.49 41.38
2020-01-22 10:00 48.92 80.9 43.31 48.92 48.92 2.95 5.46 3.53 48.9 346.3 0.0 0.377 41.43
2020-01-22 10:05 49.53 79.95 43.6 49.53 49.53 2.95 4.74 3.31 21.5 310.7 0.0 0.345 41.52
2020-01-22 10:10 49.28 78.94 43.02 49.28 49.28 2.95 4.56 3.0 66.9 135.9 0.0 0.382 41.61
2020-01-22 10:15 49.26 80.7 43.58 48.7 49.26 3.13 5.28 4.18 13.5 127.1 0.0 0.44 41.68
2020-01-22 10:20 50.07 77.51 43.32 50.07 50.07 2.42 2.95 1.68 78.5 8.2 0.0 0.381 41.77
2020-01-22 10:25 51.04 75.39 43.53 51.04 51.04 3.13 4.03 2.89 24.9 337.4 0.0 0.472 41.9
2020-01-22 10:30 51.53 74.95 43.85 51.53 51.53 3.31 4.38 2.91 22.4 20.2 0.0 0.354 42.01
2020-01-22 10:35 52.02 76.17 44.74 52.02 52.02 3.31 4.38 2.98 18.0 24.5 0.0 0.352 42.12
2020-01-22 10:40 52.5 73.98 44.45 52.5 52.5 4.38 5.28 3.78 13.9 16.5 0.0 0.395 42.22
2020-01-22 10:45 53.29 72.69 44.75 53.29 53.29 3.85 4.56 3.18 19.9 357.8 0.0 0.365 42.37
2020-01-22 10:50 53.11 73.37 44.82 53.11 53.11 3.67 5.1 3.58 9.6 350.8 0.0 0.273 42.49
2020-01-22 10:55 53.55 72.01 44.75 53.55 53.55 4.03 4.74 3.38 14.5 349.9 0.0 0.271 42.64
2020-01-22 11:00 53.85 73.68 45.64 53.85 53.85 2.24 5.1 3.74 16.8 351.4 0.0 0.238 42.76
2020-01-22 11:05 54.46 71.43 45.41 54.46 54.46 1.88 3.85 2.46 22.9 5.4 0.0 0.257 42.89
2020-01-22 11:10 54.46 75.24 46.79 54.46 54.46 2.59 3.67 2.42 15.2 48.6 0.0 0.294 43.02
2020-01-22 11:15 54.16 74.01 46.06 54.16 54.16 3.67 4.56 3.2 16.4 58.8 0.0 0.342 43.16
2020-01-22 11:20 54.9 69.14 44.97 54.9 54.9 2.95 4.92 3.36 39.4 17.0 0.0 0.305 43.3
2020-01-22 11:25 55.74 66.45 44.74 55.74 55.74 2.95 5.64 3.04 19.6 351.7 0.0 0.318 43.43
2020-01-22 11:30 56.35 65.86 45.08 56.35 56.35 5.1 5.82 4.16 14.9 345.0 0.0 0.345 43.57
2020-01-22 11:35 56.41 63.92 44.35 56.41 56.41 7.96 7.96 4.9 17.2 350.6 0.0 0.318 43.7
2020-01-22 11:40 56.84 64.6 45.04 56.84 56.84 6.71 7.96 6.24 10.5 332.7 0.0 0.3 43.83
2020-01-22 11:45 56.97 62.25 44.18 56.97 56.97 4.21 7.25 5.77 16.4 325.0 0.0 0.305 43.93
2020-01-22 11:50 56.95 62.96 44.46 56.95 56.95 6.35 8.48 6.44 8.8 326.3 0.0 0.416 44.06
2020-01-22 11:55 57.69 58.19 43.1 57.69 57.69 4.74 6.71 5.12 8.2 327.3 0.0 0.619 44.19
2020-01-22 12:00 59.09 54.06 42.49 59.09 59.09 3.31 6.0 3.94 24.6 323.0 0.0 0.598 44.31
2020-01-22 12:05 60.31 44.15 38.39 60.31 60.31 10.09 10.09 5.82 23.9 298.9 0.0 0.603 44.46
2020-01-22 12:10 60.49 43.6 38.23 60.49 60.49 11.16 11.16 9.44 10.8 323.7 0.0 0.613 44.55
2020-01-22 12:15 60.08 49.74 41.24 60.08 60.08 7.96 11.52 9.17 15.0 300.3 0.0 0.602 44.69
2020-01-22 12:20 61.05 48.71 41.6 61.05 61.05 9.57 12.59 10.02 31.4 291.1 0.0 0.593 44.8
2020-01-22 12:25 60.73 49.73 41.83 60.73 60.73 9.22 11.16 8.37 14.0 260.7 0.0 0.584 44.92
2020-01-22 12:30 61.39 49.73 42.45 61.39 61.39 7.61 10.8 9.17 14.6 276.0 0.0 0.585 45.05
2020-01-22 12:35 60.78 46.52 40.16 60.78 60.78 6.17 9.57 7.07 16.7 254.7 0.0 0.581 45.18
2020-01-22 12:40 60.91 41.24 37.19 60.91 60.91 6.35 16.53 8.97 42.6 286.2 0.0 0.58 45.32
2020-01-22 12:45 60.58 43.45 38.23 60.58 60.58 4.38 9.22 6.51 14.7 331.9 0.0 0.577 45.45
2020-01-22 12:50 61.39 44.65 39.66 61.39 61.39 8.12 10.98 7.74 28.8 304.0 0.0 0.574 45.55
2020-01-22 12:55 61.81 43.79 39.54 61.81 61.81 9.04 10.63 7.36 15.3 298.7 0.0 0.571 45.68
2020-01-22 13:00 61.45 42.36 38.36 61.45 61.45 10.63 11.16 8.23 6.7 314.5 0.0 0.566 45.81
2020-01-22 13:05 61.63 39.47 36.72 61.63 61.63 8.68 12.06 8.84 11.3 307.7 0.0 0.564 45.95
2020-01-22 13:10 61.56 41.17 37.73 61.56 61.56 4.38 8.68 5.79 20.6 310.1 0.0 0.559 46.04
2020-01-22 13:15 61.81 40.18 37.34 61.81 61.81 9.91 10.98 8.3 14.2 329.8 0.0 0.557 46.17
2020-01-22 13:20 62.42 43.17 39.73 62.42 62.42 10.09 11.34 9.15 13.2 329.6 0.0 0.553 46.29
2020-01-22 13:25 61.99 40.21 37.52 61.99 61.99 8.12 12.59 9.91 13.1 334.8 0.0 0.549 46.4
2020-01-22 13:30 61.68 40.86 37.65 61.68 61.68 7.61 11.34 7.56 14.3 340.6 0.0 0.544 46.51
2020-01-22 13:35 62.53 41.81 39.0 62.53 62.53 8.48 12.95 8.28 12.3 336.2 0.0 0.541 46.62
2020-01-22 13:40 62.65 40.93 38.57 62.65 62.65 3.85 8.3 5.7 15.9 350.9 0.0 0.542 46.72
2020-01-22 13:45 62.53 42.08 39.17 62.53 62.53 11.16 11.16 7.83 20.2 346.8 0.0 0.533 46.83
2020-01-22 13:50 62.46 41.71 38.88 62.46 62.46 6.89 10.45 7.67 13.1 340.2 0.0 0.563 46.94
2020-01-22 13:55 61.97 40.68 37.8 61.97 61.97 4.74 10.8 6.98 16.1 342.9 0.0 0.126 47.05
2020-01-22 14:00 62.15 41.67 38.58 62.15 62.15 4.56 8.48 5.5 23.1 357.1 0.0 0.139 47.14
2020-01-22 14:05 61.48 44.29 39.54 61.48 61.48 7.43 8.12 5.97 16.4 352.9 0.0 0.125 47.23
2020-01-22 14:10 61.36 42.56 38.4 61.36 61.36 3.49 10.8 7.52 11.6 345.2 0.0 0.509 47.34
2020-01-22 14:15 62.28 42.08 38.94 62.28 62.28 8.12 9.04 5.82 16.6 351.6 0.0 0.476 47.44
2020-01-22 14:20 62.22 41.91 38.79 62.22 62.22 4.74 8.3 5.64 20.1 354.4 0.0 0.466 47.52
2020-01-22 14:25 62.65 41.37 38.84 62.65 62.65 7.61 9.91 6.35 19.5 352.2 0.0 0.061 47.62
2020-01-22 14:30 61.79 42.25 38.6 61.79 61.79 5.82 8.48 6.26 18.0 353.3 0.0 0.061 47.71
2020-01-22 14:35 61.36 42.87 38.59 61.36 61.36 6.89 9.22 5.59 16.4 357.8 0.0 0.45 47.77
2020-01-22 14:40 61.86 41.16 38.0 61.86 61.86 2.77 9.04 5.88 26.5 353.5 0.0 0.249 47.86
2020-01-22 14:45 62.47 40.99 38.45 62.47 62.47 6.17 10.09 6.85 16.6 342.7 0.0 0.397 47.93
2020-01-22 14:50 63.39 38.51 37.68 63.39 63.39 6.53 10.27 6.89 8.5 327.2 0.0 0.404 47.98
2020-01-22 14:55 63.95 39.12 38.58 63.95 63.95 9.91 12.59 8.39 14.6 339.6 0.0 0.397 48.06

Data is courtesy of the NM Climate Center. DO NOT USE IN LEGAL PROCEEDINGS.